Latest Coastal Weather Observations for Gove Airport

IDD60701

Issued at 4:31 pm CST Saturday 13 February 2016 (issued every 10 minutes, with the page automatically refreshed every 10 minutes)

About coastal observations | Map of coastal stations | Coastal observations for NT | Marine services | Other Formats
Station Details ID: 014508 Name: GOVE AIRPORT Lat: -12.27 Lon: 136.82 Height: 51.6 m
Data from the previous 72 hours. | See also: Recent months at Gove Airport
Date/Time
CST
Temp

°C
Wind Pressure Rain
since 9am
mm
Weather Cloud Vis
km
Sea
Height
m
Swell
Dir
 
Speed
knots
Gust
knots
hPa Trend Height
m
Period
s
Dir
13/04:00pm 32.1 S 6 9 1005.9 - 0.2 - Mostly clear 10 - - - -
13/03:30pm 32.6 SE 9 14 1006.3 - 0.2 - Partly cloudy 10 - - - -
13/03:00pm 32.3 SSE 7 10 1006.1 R 0.2 Fine Mostly cloudy 25 - - - -
13/02:30pm 32.2 SSE 7 12 1006.4 - 0.2 - Partly cloudy 10 - - - -
13/02:00pm 32.3 ESE 10 14 1006.5 - 0.2 - Partly cloudy 10 - - - -
13/01:30pm 32.6 ESE 10 15 1007.0 - 0.2 - Partly cloudy 10 - - - -
13/01:00pm 32.6 SSE 11 14 1007.2 - 0.2 - Partly cloudy 10 - - - -
13/12:30pm 32.4 SSE 12 16 1007.5 - 0.2 - Partly cloudy 10 - - - -
13/12:00pm 33.0 ESE 10 15 1007.6 F 0.2 Fine Partly cloudy 25 - - - -
13/11:30am 32.9 SE 8 13 1008.3 - 0.2 - Partly cloudy 10 - - - -
13/11:00am 32.9 SSE 7 10 1008.7 - 0.2 - Partly cloudy 10 - - - -
13/10:30am 32.4 SE 8 11 1009.1 - 0.2 - Partly cloudy 10 - - - -
13/10:00am 31.4 SE 7 9 1009.2 - 0.2 - Partly cloudy 10 - - - -
13/09:30am 30.3 S 4 6 1009.3 - 0.2 - Partly cloudy 10 - - - -
13/09:00am 30.5 SE 5 6 1008.9 R 20.8 Fine Partly cloudy 25 - - - -
13/08:30am 29.2 S 4 6 1009.0 - 20.8 - Mostly clear 10 - - - -
13/08:00am 28.3 SSW 4 5 1008.7 - 20.8 - Mostly clear 10 - - - -
13/07:30am 27.2 SW 3 4 1008.1 - 20.8 - Mostly clear 10 - - - -
13/07:00am 26.2 WSW 4 5 1008.0 - 20.8 - Mostly clear 10 - - - -
13/06:30am 25.7 W 5 7 1007.5 - 20.8 - Mostly clear 10 - - - -
13/06:00am 25.7 W 5 6 1006.7 F 20.8 Fine Mostly clear 24 - - - -
13/05:30am 25.8 W 4 6 1006.6 - 20.8 - - 10 - - - -
13/05:00am 25.2 CALM 0 0 1006.6 - 20.8 - - 10 - - - -
13/04:30am 25.5 CALM 0 0 1006.5 - 20.8 - - 10 - - - -
13/04:00am 25.5 SSW 3 4 1006.5 - 20.8 - - 10 - - - -
13/03:30am 25.8 CALM 0 0 1006.5 - 20.8 - - 10 - - - -
13/03:00am 25.9 SW 3 4 1006.3 - 20.8 - - 10 - - - -
13/02:30am 26.2 W 5 6 1006.9 - 20.8 - - 10 - - - -
13/02:00am 26.2 W 4 5 1007.2 - 20.8 - - 10 - - - -
13/01:30am 26.1 WSW 4 4 1007.4 - 20.8 - Partly cloudy 10 - - - -
13/01:00am 25.9 CALM 0 0 1007.6 - 20.8 - Partly cloudy 10 - - - -
13/12:30am 26.2 CALM 0 0 1007.7 - 20.8 - - 10 - - - -
13/12:00am 26.2 CALM 0 0 1007.8 - 20.8 - - 10 - - - -
 
Date/Time
CST
Temp

°C
Wind Pressure Rain
since 9am
mm
Weather Cloud Vis
km
Sea
Height
m
Swell
Dir
 
Speed
knots
Gust
knots
hPa Trend Height
m
Period
s
Dir
12/11:30pm 26.4 CALM 0 0 1008.3 - 20.8 - - 10 - - - -
12/11:00pm 26.7 CALM 0 0 1008.2 - 20.8 - - 10 - - - -
12/10:30pm 26.8 CALM 0 0 1008.5 - 20.8 - - 10 - - - -
12/10:00pm 26.9 CALM 0 0 1008.6 - 20.8 - - 10 - - - -
12/09:30pm 26.8 SSW 3 4 1008.7 - 20.8 - - 10 - - - -
12/09:00pm 26.6 SW 4 5 1008.1 - 20.8 - - 10 - - - -
12/08:30pm 26.9 CALM 0 0 1008.1 - 20.8 - - 10 - - - -
12/08:00pm 27.2 CALM 0 0 1007.7 - 20.8 - Partly cloudy 10 - - - -
12/07:30pm 27.5 CALM 0 0 1007.1 - 20.8 - - 10 - - - -
12/07:00pm 27.8 S 2 3 1006.8 - 20.8 - - 10 - - - -
12/06:30pm 28.5 CALM 0 0 1006.5 - 20.8 - - 10 - - - -
12/06:00pm 28.3 CALM 0 0 1006.0 - 20.8 - - 10 - - - -
12/05:30pm 28.2 CALM 0 0 1006.4 - 20.8 - - 10 - - - -
12/05:00pm 27.8 CALM 0 0 1006.3 - 20.8 - Mostly clear 10 - - - -
12/04:30pm 27.6 CALM 0 2 1006.4 - 20.8 - Mostly clear 10 - - - -
12/04:00pm 27.3 SSW 1 3 1006.1 - 20.8 - Mostly clear 10 - - - -
12/03:30pm 26.8 W 4 5 1006.2 - 20.8 - Mostly clear 10 - - - -
12/03:00pm 26.5 W 5 7 1006.3 R 20.8 Distant precip. Mostly cloudy 30 - - - -
12/02:30pm 26.2 SSW 4 5 1006.7 - 20.8 - Mostly clear 10 - - - -
12/02:00pm 26.0 SSE 4 5 1007.0 - 20.8 Showers Mostly clear 10 - - - -
12/01:58pm 26.0 SE 4 5 1007.0 - 20.8 Showers Mostly clear 10 - - - -
12/01:47pm 25.9 E 6 7 1006.9 - 20.4 Showers Mostly clear 6 - - - -
12/01:30pm 25.8 SE 8 9 1007.4 - 18.4 Thunderstorm Mostly clear 1 - - - -
12/01:09pm 26.6 SE 18 21 1007.5 - 7.2 Thunderstorm Mostly clear 0.8 - - - -
12/01:00pm 27.1 SSE 14 20 1007.1 - 0.0 Thunderstorm Mostly clear 1 - - - -
12/12:54pm 27.5 SSE 13 20 1006.9 - 0.0 Thunderstorm Mostly clear 2 - - - -
12/12:30pm 32.0 NNW 5 10 1006.9 - 0.0 Showers Mostly clear 4 - - - -
12/12:00pm 32.5 NNW 6 9 1007.2 F 0.0 Fine Mostly cloudy 30 - - - -
12/11:30am 32.5 WNW 4 7 1008.0 - 0.0 - Partly cloudy 10 - - - -
12/11:00am 32.2 WSW 4 6 1008.3 - 0.0 - Mostly clear 10 - - - -
12/10:30am 31.1 W 5 7 1008.7 - 0.0 - Mostly clear 10 - - - -
12/10:00am 30.7 W 6 7 1009.3 - 0.0 - Mostly clear 10 - - - -
12/09:30am 30.7 W 5 8 1009.4 - 0.0 - Mostly clear 10 - - - -
12/09:00am 29.7 WSW 6 8 1009.1 R 27.0 Fine Mostly cloudy 30 - - - -
12/08:30am 29.0 W 4 5 1009.3 - 27.0 - Mostly clear 10 - - - -
12/08:00am 28.1 SW 3 5 1009.1 - 27.0 - Mostly clear 10 - - - -
12/07:30am 27.2 WSW 3 4 1008.7 - 27.0 - Mostly clear 10 - - - -
12/07:00am 25.5 CALM 0 0 1008.2 - 27.0 - Mostly clear 10 - - - -
12/06:30am 24.9 WSW 4 6 1007.8 - 27.0 - Mostly clear 10 - - - -
12/06:00am 25.0 WSW 3 4 1007.1 F 27.0 Fine Mostly cloudy 26 - - - -
12/05:30am 24.9 CALM 0 3 1007.3 - 27.0 - Partly cloudy 10 - - - -
12/05:00am 24.9 SW 4 5 1006.9 - 27.0 - Partly cloudy 10 - - - -
12/04:30am 24.9 NW 4 5 1006.8 - 27.0 - Partly cloudy 10 - - - -
12/04:00am 24.8 SSW 4 5 1006.6 - 26.8 - Partly cloudy 10 - - - -
12/03:58am 24.9 SW 4 6 1006.7 - 26.8 - Partly cloudy 10 - - - -
12/03:30am 24.4 S 6 9 1007.3 - 26.0 - Partly cloudy 1 - - - -
12/03:07am 25.5 SSW 7 12 1007.4 - 22.2 - Partly cloudy 6 - - - -
12/03:01am 25.5 SW 5 7 1007.2 - 22.2 - Partly cloudy 7 - - - -
12/03:00am 25.5 SW 5 6 1006.9 - 22.2 - Partly cloudy 7 - - - -
12/02:40am 25.6 WNW 6 7 1007.0 - 21.8 - Partly cloudy 2 - - - -
12/02:30am 25.6 W 4 7 1007.0 - 19.2 - Partly cloudy 2 - - - -
12/02:00am 26.1 S 8 13 1007.1 - 10.8 - Partly cloudy 1 - - - -
12/01:55am 26.4 S 8 13 1007.0 - 8.0 - Partly cloudy 6 - - - -
12/01:48am 26.8 SSE 4 8 1007.0 - 7.6 - Partly cloudy 10 - - - -
12/01:30am 27.0 W 4 5 1007.1 - 7.6 - Partly cloudy 10 - - - -
12/01:00am 27.1 CALM 0 0 1007.2 - 7.6 - Partly cloudy 10 - - - -
12/12:30am 26.8 SSW 1 5 1007.7 - 7.6 - Partly cloudy 10 - - - -
12/12:00am 26.8 CALM 0 0 1007.6 - 7.6 - Partly cloudy 10 - - - -
 
Date/Time
CST
Temp

°C
Wind Pressure Rain
since 9am
mm
Weather Cloud Vis
km
Sea
Height
m
Swell
Dir
 
Speed
knots
Gust
knots
hPa Trend Height
m
Period
s
Dir
11/11:30pm 26.9 CALM 0 0 1007.9 - 7.6 - Partly cloudy 10 - - - -
11/11:00pm 27.1 SSW 2 4 1008.1 - 7.6 - Partly cloudy 10 - - - -
11/10:30pm 27.0 CALM 0 0 1008.2 - 7.6 - - 10 - - - -
11/10:00pm 27.2 CALM 0 0 1008.3 - 7.6 - - 10 - - - -
11/09:30pm 27.3 CALM 0 0 1007.9 - 7.6 - - 10 - - - -
11/09:00pm 27.4 CALM 0 0 1007.4 - 7.6 - - 10 - - - -
11/08:30pm 27.8 CALM 0 0 1007.3 - 7.6 - - 10 - - - -
11/08:00pm 27.9 CALM 0 0 1006.9 - 7.6 - - 10 - - - -
11/07:30pm 28.3 CALM 0 0 1006.6 - 7.6 - - 10 - - - -
11/07:00pm 28.6 NE 3 4 1006.1 - 7.6 - - 10 - - - -
11/06:30pm 28.9 N 3 5 1005.6 - 7.6 - - 10 - - - -
11/06:00pm 29.0 N 3 4 1005.2 - 7.6 - - 10 - - - -
11/05:30pm 28.5 W 1 3 1005.1 - 7.6 - Mostly clear 10 - - - -
11/05:00pm 27.8 W 3 5 1004.9 - 7.4 Showers Mostly clear 10 - - - -
11/04:30pm 27.6 WNW 5 7 1004.9 - 7.4 Showers Mostly clear 10 - - - -
11/04:00pm 27.2 W 5 8 1004.6 - 7.4 Showers Mostly clear 10 - - - -
11/03:30pm 27.3 N 6 8 1004.2 - 7.2 - Mostly clear 10 - - - -
11/03:19pm 27.6 N 7 9 1004.0 - 7.2 Showers Mostly clear 10 - - - -
11/03:00pm 27.5 WNW 11 13 1004.0 S 4.4 Showers Mostly cloudy 0.8 - - - -
11/02:59pm 28.1 WNW 11 13 1004.2 - 2.0 Showers Mostly clear 0.8 - - - -
11/02:54pm 29.2 N 8 11 1004.0 - 0.2 Showers Mostly clear 1 - - - -
11/02:30pm 30.8 N 7 11 1004.1 - 0.2 Showers Mostly clear 10 - - - -
11/02:00pm 31.7 N 9 11 1004.6 - 0.2 - Mostly clear 10 - - - -
11/01:30pm 33.2 SW 5 9 1004.8 - 0.2 - Mostly clear 10 - - - -
11/01:00pm 32.5 S 7 11 1005.2 - 0.2 - Mostly clear 10 - - - -
11/12:30pm 32.0 SSE 5 9 1005.8 - 0.2 - Partly cloudy 10 - - - -
11/12:00pm 31.5 SW 5 7 1006.0 F 0.2 Fine Mostly cloudy 30 - - - -
11/11:30am 30.7 S 5 9 1006.6 - 0.2 - Partly cloudy 10 - - - -
11/11:00am 30.8 S 8 13 1007.0 - 0.2 - Partly cloudy 10 - - - -
11/10:30am 29.9 S 7 10 1007.2 - 0.2 - Mostly clear 10 - - - -
11/10:00am 28.9 SSW 5 8 1007.2 - 0.0 - Mostly clear 10 - - - -
11/09:30am 27.7 SSW 5 7 1007.6 - 0.0 - Mostly clear 10 - - - -
11/09:00am 26.9 SW 7 10 1007.4 F 10.2 Rain Mostly cloudy 20 - - - -
11/08:30am 27.1 SW 7 10 1007.8 - 10.2 - Mostly clear 10 - - - -
11/08:00am 26.8 SW 5 8 1007.9 - 10.2 - Mostly clear 10 - - - -
11/07:30am 26.2 WSW 6 9 1007.9 - 10.2 - Partly cloudy 10 - - - -
11/07:00am 25.9 WSW 7 10 1007.3 - 10.2 - Mostly clear 10 - - - -
11/06:30am 25.5 SW 4 7 1006.3 - 10.2 - Mostly clear 10 - - - -
11/06:00am 25.3 WSW 5 6 1005.9 R 10.2 Fine Mostly cloudy 30 - - - -
11/05:30am 25.1 WSW 3 4 1006.2 - 10.2 - Partly cloudy 10 - - - -
11/05:00am 25.1 CALM 0 3 1005.9 - 10.2 - - 10 - - - -
11/04:30am 25.1 WNW 4 5 1005.5 - 10.2 - - 10 - - - -
11/04:00am 25.2 WSW 3 5 1005.4 - 10.2 - - 10 - - - -
11/03:30am 25.2 SSW 4 6 1005.1 - 10.2 - - 10 - - - -
11/03:00am 25.2 SSW 3 5 1004.5 - 10.2 - - 10 - - - -
11/02:30am 25.1 SW 2 4 1005.5 - 10.2 - - 10 - - - -
11/02:00am 25.1 WSW 3 4 1005.7 - 10.2 - - 10 - - - -
11/01:30am 25.1 WSW 3 4 1005.8 - 10.2 - - 10 - - - -
11/01:00am 25.1 SW 3 4 1005.8 - 10.2 - - 10 - - - -
11/12:30am 24.9 WSW 2 4 1005.9 - 10.2 - - 10 - - - -
11/12:00am 24.8 W 2 4 1005.9 - 10.2 - - 10 - - - -
 
Date/Time
CST
Temp

°C
Wind Pressure Rain
since 9am
mm
Weather Cloud Vis
km
Sea
Height
m
Swell
Dir
 
Speed
knots
Gust
knots
hPa Trend Height
m
Period
s
Dir
10/11:30pm 25.3 NW 2 5 1006.6 - 10.2 - - 10 - - - -
10/11:00pm 25.4 SW 4 6 1006.8 - 10.2 - - 10 - - - -
10/10:30pm 25.5 W 5 8 1007.1 - 10.2 - - 10 - - - -
10/10:00pm 25.5 W 5 7 1006.7 - 10.2 - - 10 - - - -
10/09:30pm 25.4 W 5 8 1006.8 - 10.2 - - 10 - - - -
10/09:00pm 24.9 WNW 4 7 1006.4 - 10.2 - - 10 - - - -
10/08:30pm 24.7 W 4 5 1006.3 - 10.2 - - 10 - - - -
10/08:00pm 24.6 SW 4 6 1006.2 - 10.2 - Partly cloudy 10 - - - -
10/07:30pm 24.4 WSW 6 8 1006.3 - 10.2 - Partly cloudy 10 - - - -
10/07:00pm 24.7 WSW 6 9 1006.2 - 9.8 - - 10 - - - -
10/06:30pm 25.4 W 6 8 1005.8 - 9.4 - Partly cloudy 10 - - - -
10/06:00pm 25.2 NW 8 11 1004.8 - 9.4 - Mostly clear 10 - - - -
10/05:30pm 24.5 WNW 7 10 1004.8 - 9.4 - Partly cloudy 10 - - - -
10/05:00pm 24.5 NW 3 5 1004.3 - 9.4 Showers Mostly clear 10 - - - -

Other Formats:

Comma delimited format used in spreadsheet applications
http://www.bom.gov.au/fwo/IDD60701/IDD60701.94150.axf

JavaScript Object Notation format (JSON) in row-major order
http://www.bom.gov.au/fwo/IDD60701/IDD60701.94150.json